sensor_id;sensor_type;location;lat;lon;timestamp;temperature;humidity
65573;SHT30;52214;50.940;13.996;2022-07-06T00:02:14;14.95;93.85
65573;SHT30;52214;50.940;13.996;2022-07-06T00:04:39;14.87;95.39
65573;SHT30;52214;50.940;13.996;2022-07-06T00:07:05;14.57;93.44
65573;SHT30;52214;50.940;13.996;2022-07-06T00:09:32;14.80;97.00
65573;SHT30;52214;50.940;13.996;2022-07-06T00:11:57;14.67;96.38
65573;SHT30;52214;50.940;13.996;2022-07-06T00:14:23;14.63;96.35
65573;SHT30;52214;50.940;13.996;2022-07-06T00:16:48;14.43;97.37
65573;SHT30;52214;50.940;13.996;2022-07-06T00:19:14;14.72;97.61
65573;SHT30;52214;50.940;13.996;2022-07-06T00:21:39;14.83;96.71
65573;SHT30;52214;50.940;13.996;2022-07-06T00:24:05;14.62;96.55
65573;SHT30;52214;50.940;13.996;2022-07-06T00:26:30;14.49;96.41
65573;SHT30;52214;50.940;13.996;2022-07-06T00:28:56;14.32;97.43
65573;SHT30;52214;50.940;13.996;2022-07-06T00:31:22;14.35;98.31
65573;SHT30;52214;50.940;13.996;2022-07-06T00:33:47;14.35;98.95
65573;SHT30;52214;50.940;13.996;2022-07-06T00:36:13;14.52;99.31
65573;SHT30;52214;50.940;13.996;2022-07-06T00:38:38;14.36;98.72
65573;SHT30;52214;50.940;13.996;2022-07-06T00:41:04;14.40;99.93
65573;SHT30;52214;50.940;13.996;2022-07-06T00:43:50;14.39;99.17
65573;SHT30;52214;50.940;13.996;2022-07-06T00:46:16;14.25;98.98
65573;SHT30;52214;50.940;13.996;2022-07-06T00:48:41;13.94;98.89
65573;SHT30;52214;50.940;13.996;2022-07-06T00:51:07;14.00;99.31
65573;SHT30;52214;50.940;13.996;2022-07-06T00:53:33;14.19;99.99
65573;SHT30;52214;50.940;13.996;2022-07-06T00:55:58;14.15;99.39
65573;SHT30;52214;50.940;13.996;2022-07-06T00:58:24;14.08;99.58
65573;SHT30;52214;50.940;13.996;2022-07-06T01:00:50;14.30;99.52
65573;SHT30;52214;50.940;13.996;2022-07-06T01:03:15;14.14;99.18
65573;SHT30;52214;50.940;13.996;2022-07-06T01:05:41;13.98;99.07
65573;SHT30;52214;50.940;13.996;2022-07-06T01:08:06;14.14;98.99
65573;SHT30;52214;50.940;13.996;2022-07-06T01:10:32;14.24;99.96
65573;SHT30;52214;50.940;13.996;2022-07-06T01:12:57;14.08;99.21
65573;SHT30;52214;50.940;13.996;2022-07-06T01:15:24;14.08;99.72
65573;SHT30;52214;50.940;13.996;2022-07-06T01:17:51;14.10;99.38
65573;SHT30;52214;50.940;13.996;2022-07-06T01:20:18;14.01;99.45
65573;SHT30;52214;50.940;13.996;2022-07-06T01:22:46;14.15;99.33
65573;SHT30;52214;50.940;13.996;2022-07-06T01:25:12;14.22;99.50
65573;SHT30;52214;50.940;13.996;2022-07-06T01:27:39;14.24;99.90
65573;SHT30;52214;50.940;13.996;2022-07-06T01:30:07;14.25;99.63
65573;SHT30;52214;50.940;13.996;2022-07-06T01:32:33;14.07;99.72
65573;SHT30;52214;50.940;13.996;2022-07-06T01:34:59;14.11;99.91
65573;SHT30;52214;50.940;13.996;2022-07-06T01:37:25;14.21;99.79
65573;SHT30;52214;50.940;13.996;2022-07-06T01:39:50;14.24;99.26
65573;SHT30;52214;50.940;13.996;2022-07-06T01:42:16;14.21;98.95
65573;SHT30;52214;50.940;13.996;2022-07-06T01:44:43;14.21;99.01
65573;SHT30;52214;50.940;13.996;2022-07-06T01:47:10;14.12;99.13
65573;SHT30;52214;50.940;13.996;2022-07-06T01:49:35;14.08;99.27
65573;SHT30;52214;50.940;13.996;2022-07-06T01:52:01;14.10;99.94
65573;SHT30;52214;50.940;13.996;2022-07-06T01:54:26;13.93;98.92
65573;SHT30;52214;50.940;13.996;2022-07-06T01:56:52;13.90;99.35
65573;SHT30;52214;50.940;13.996;2022-07-06T01:59:17;14.12;99.99
65573;SHT30;52214;50.940;13.996;2022-07-06T02:01:43;14.12;99.99
65573;SHT30;52214;50.940;13.996;2022-07-06T02:04:08;14.17;99.99
65573;SHT30;52214;50.940;13.996;2022-07-06T02:06:34;14.04;99.99
65573;SHT30;52214;50.940;13.996;2022-07-06T02:08:59;14.15;99.99
65573;SHT30;52214;50.940;13.996;2022-07-06T02:11:24;14.11;99.98
65573;SHT30;52214;50.940;13.996;2022-07-06T02:13:50;14.00;99.99
65573;SHT30;52214;50.940;13.996;2022-07-06T02:16:15;14.21;99.99
65573;SHT30;52214;50.940;13.996;2022-07-06T02:18:41;14.05;99.55
65573;SHT30;52214;50.940;13.996;2022-07-06T02:21:06;14.05;99.22
65573;SHT30;52214;50.940;13.996;2022-07-06T02:23:32;13.98;99.86
65573;SHT30;52214;50.940;13.996;2022-07-06T02:25:57;13.87;99.00
65573;SHT30;52214;50.940;13.996;2022-07-06T02:28:23;13.90;99.99
65573;SHT30;52214;50.940;13.996;2022-07-06T02:30:48;13.90;99.99
65573;SHT30;52214;50.940;13.996;2022-07-06T02:33:14;13.84;99.15
65573;SHT30;52214;50.940;13.996;2022-07-06T02:35:39;13.94;99.99
65573;SHT30;52214;50.940;13.996;2022-07-06T02:38:09;13.95;99.99
65573;SHT30;52214;50.940;13.996;2022-07-06T02:40:35;13.76;99.99
65573;SHT30;52214;50.940;13.996;2022-07-06T02:43:00;13.69;99.99
65573;SHT30;52214;50.940;13.996;2022-07-06T02:45:26;13.69;99.99
65573;SHT30;52214;50.940;13.996;2022-07-06T02:47:51;13.69;99.99
65573;SHT30;52214;50.940;13.996;2022-07-06T02:50:18;13.69;99.99
65573;SHT30;52214;50.940;13.996;2022-07-06T02:52:44;13.65;99.99
65573;SHT30;52214;50.940;13.996;2022-07-06T02:55:09;13.50;99.99
65573;SHT30;52214;50.940;13.996;2022-07-06T02:57:35;13.42;99.99
65573;SHT30;52214;50.940;13.996;2022-07-06T03:00:00;13.32;99.99
65573;SHT30;52214;50.940;13.996;2022-07-06T03:02:26;13.18;99.99
65573;SHT30;52214;50.940;13.996;2022-07-06T03:04:51;13.35;99.99
65573;SHT30;52214;50.940;13.996;2022-07-06T03:07:17;13.23;99.99
65573;SHT30;52214;50.940;13.996;2022-07-06T03:09:42;13.25;99.99
65573;SHT30;52214;50.940;13.996;2022-07-06T03:12:08;13.28;99.99
65573;SHT30;52214;50.940;13.996;2022-07-06T03:14:34;13.25;99.99
65573;SHT30;52214;50.940;13.996;2022-07-06T03:16:59;13.26;99.99
65573;SHT30;52214;50.940;13.996;2022-07-06T03:19:25;13.25;99.99
65573;SHT30;52214;50.940;13.996;2022-07-06T03:21:50;13.15;99.99
65573;SHT30;52214;50.940;13.996;2022-07-06T03:24:16;13.10;99.99
65573;SHT30;52214;50.940;13.996;2022-07-06T03:26:41;13.04;99.99
65573;SHT30;52214;50.940;13.996;2022-07-06T03:29:07;13.14;99.99
65573;SHT30;52214;50.940;13.996;2022-07-06T03:31:32;13.18;99.99
65573;SHT30;52214;50.940;13.996;2022-07-06T03:33:58;13.26;99.99
65573;SHT30;52214;50.940;13.996;2022-07-06T03:36:23;13.28;99.99
65573;SHT30;52214;50.940;13.996;2022-07-06T03:38:49;13.39;99.99
65573;SHT30;52214;50.940;13.996;2022-07-06T03:41:14;13.46;99.99
65573;SHT30;52214;50.940;13.996;2022-07-06T03:43:40;13.53;99.99
65573;SHT30;52214;50.940;13.996;2022-07-06T03:46:05;13.69;99.99
65573;SHT30;52214;50.940;13.996;2022-07-06T03:48:30;13.57;99.99
65573;SHT30;52214;50.940;13.996;2022-07-06T03:50:56;13.69;99.99
65573;SHT30;52214;50.940;13.996;2022-07-06T03:53:22;13.66;99.99
65573;SHT30;52214;50.940;13.996;2022-07-06T03:55:47;13.70;99.99
65573;SHT30;52214;50.940;13.996;2022-07-06T03:58:33;13.59;99.99
65573;SHT30;52214;50.940;13.996;2022-07-06T04:00:58;13.55;99.99
65573;SHT30;52214;50.940;13.996;2022-07-06T04:03:24;13.56;99.99
65573;SHT30;52214;50.940;13.996;2022-07-06T04:05:49;13.55;99.99
65573;SHT30;52214;50.940;13.996;2022-07-06T04:08:14;13.60;99.99
65573;SHT30;52214;50.940;13.996;2022-07-06T04:10:40;13.65;99.99
65573;SHT30;52214;50.940;13.996;2022-07-06T04:13:05;13.63;99.99
65573;SHT30;52214;50.940;13.996;2022-07-06T04:15:31;13.67;99.99
65573;SHT30;52214;50.940;13.996;2022-07-06T04:17:56;13.69;99.99
65573;SHT30;52214;50.940;13.996;2022-07-06T04:20:23;13.74;99.99
65573;SHT30;52214;50.940;13.996;2022-07-06T04:22:50;13.67;99.99
65573;SHT30;52214;50.940;13.996;2022-07-06T04:25:15;13.50;99.99
65573;SHT30;52214;50.940;13.996;2022-07-06T04:27:41;13.56;99.99
65573;SHT30;52214;50.940;13.996;2022-07-06T04:30:07;13.59;99.99
65573;SHT30;52214;50.940;13.996;2022-07-06T04:32:34;13.62;99.99
65573;SHT30;52214;50.940;13.996;2022-07-06T04:35:00;13.78;99.99
65573;SHT30;52214;50.940;13.996;2022-07-06T04:37:26;13.76;99.99
65573;SHT30;52214;50.940;13.996;2022-07-06T04:39:51;13.85;99.99
65573;SHT30;52214;50.940;13.996;2022-07-06T04:42:18;13.88;99.99
65573;SHT30;52214;50.940;13.996;2022-07-06T04:44:44;13.94;99.99
65573;SHT30;52214;50.940;13.996;2022-07-06T04:47:13;13.97;99.99
65573;SHT30;52214;50.940;13.996;2022-07-06T04:49:39;14.04;99.99
65573;SHT30;52214;50.940;13.996;2022-07-06T04:52:05;14.21;99.52
65573;SHT30;52214;50.940;13.996;2022-07-06T04:54:31;14.14;99.49
65573;SHT30;52214;50.940;13.996;2022-07-06T04:56:57;14.21;99.08
65573;SHT30;52214;50.940;13.996;2022-07-06T04:59:22;14.32;99.06
65573;SHT30;52214;50.940;13.996;2022-07-06T05:01:48;14.28;99.37
65573;SHT30;52214;50.940;13.996;2022-07-06T05:04:13;14.33;99.19
65573;SHT30;52214;50.940;13.996;2022-07-06T05:06:39;14.29;99.89
65573;SHT30;52214;50.940;13.996;2022-07-06T05:09:05;14.50;99.40
65573;SHT30;52214;50.940;13.996;2022-07-06T05:11:31;14.70;98.73
65573;SHT30;52214;50.940;13.996;2022-07-06T05:13:57;14.66;98.85
65573;SHT30;52214;50.940;13.996;2022-07-06T05:16:22;14.66;99.35
65573;SHT30;52214;50.940;13.996;2022-07-06T05:18:48;14.72;98.50
65573;SHT30;52214;50.940;13.996;2022-07-06T05:21:13;14.60;98.84
65573;SHT30;52214;50.940;13.996;2022-07-06T05:23:39;14.83;97.90
65573;SHT30;52214;50.940;13.996;2022-07-06T05:26:05;14.77;98.45
65573;SHT30;52214;50.940;13.996;2022-07-06T05:28:31;14.73;97.94
65573;SHT30;52214;50.940;13.996;2022-07-06T05:30:56;14.84;98.01
65573;SHT30;52214;50.940;13.996;2022-07-06T05:33:22;15.01;96.75
65573;SHT30;52214;50.940;13.996;2022-07-06T05:35:47;15.12;97.57
65573;SHT30;52214;50.940;13.996;2022-07-06T05:38:13;15.19;97.63
65573;SHT30;52214;50.940;13.996;2022-07-06T05:40:39;15.11;96.74
65573;SHT30;52214;50.940;13.996;2022-07-06T05:43:04;15.19;97.00
65573;SHT30;52214;50.940;13.996;2022-07-06T05:45:30;15.12;96.05
65573;SHT30;52214;50.940;13.996;2022-07-06T05:47:55;15.32;97.06
65573;SHT30;52214;50.940;13.996;2022-07-06T05:50:39;15.50;97.90
65573;SHT30;52214;50.940;13.996;2022-07-06T05:53:05;15.39;97.44
65573;SHT30;52214;50.940;13.996;2022-07-06T05:55:32;15.38;97.42
65573;SHT30;52214;50.940;13.996;2022-07-06T05:57:58;15.50;97.07
65573;SHT30;52214;50.940;13.996;2022-07-06T06:00:24;15.25;96.54
65573;SHT30;52214;50.940;13.996;2022-07-06T06:02:52;15.28;96.57
65573;SHT30;52214;50.940;13.996;2022-07-06T06:05:17;15.25;95.92
65573;SHT30;52214;50.940;13.996;2022-07-06T06:07:44;15.38;95.29
65573;SHT30;52214;50.940;13.996;2022-07-06T06:10:13;15.32;94.25
65573;SHT30;52214;50.940;13.996;2022-07-06T06:12:39;15.43;94.91
65573;SHT30;52214;50.940;13.996;2022-07-06T06:15:06;15.39;93.52
65573;SHT30;52214;50.940;13.996;2022-07-06T06:17:32;15.24;92.85
65573;SHT30;52214;50.940;13.996;2022-07-06T06:19:59;15.36;93.89
65573;SHT30;52214;50.940;13.996;2022-07-06T06:22:25;15.36;92.44
65573;SHT30;52214;50.940;13.996;2022-07-06T06:24:51;15.48;94.62
65573;SHT30;52214;50.940;13.996;2022-07-06T06:27:17;15.40;91.52
65573;SHT30;52214;50.940;13.996;2022-07-06T06:29:42;15.56;94.86
65573;SHT30;52214;50.940;13.996;2022-07-06T06:32:12;15.56;93.30
65573;SHT30;52214;50.940;13.996;2022-07-06T06:34:41;15.76;93.93
65573;SHT30;52214;50.940;13.996;2022-07-06T06:37:06;15.94;91.95
65573;SHT30;52214;50.940;13.996;2022-07-06T06:39:32;16.05;90.94
65573;SHT30;52214;50.940;13.996;2022-07-06T06:41:58;16.11;91.47
65573;SHT30;52214;50.940;13.996;2022-07-06T06:44:24;16.12;91.36
65573;SHT30;52214;50.940;13.996;2022-07-06T06:46:50;16.48;90.52
65573;SHT30;52214;50.940;13.996;2022-07-06T06:49:17;16.59;89.69
65573;SHT30;52214;50.940;13.996;2022-07-06T06:51:43;16.56;87.11
65573;SHT30;52214;50.940;13.996;2022-07-06T06:54:09;16.57;88.63
65573;SHT30;52214;50.940;13.996;2022-07-06T06:56:35;16.81;88.90
65573;SHT30;52214;50.940;13.996;2022-07-06T06:59:00;16.83;89.26
65573;SHT30;52214;50.940;13.996;2022-07-06T07:01:27;16.84;88.82
65573;SHT30;52214;50.940;13.996;2022-07-06T07:03:52;17.11;87.50
65573;SHT30;52214;50.940;13.996;2022-07-06T07:06:19;17.21;85.32
65573;SHT30;52214;50.940;13.996;2022-07-06T07:08:44;17.28;85.94
65573;SHT30;52214;50.940;13.996;2022-07-06T07:11:10;17.34;84.10
65573;SHT30;52214;50.940;13.996;2022-07-06T07:13:35;17.28;84.35
65573;SHT30;52214;50.940;13.996;2022-07-06T07:16:01;17.18;83.18
65573;SHT30;52214;50.940;13.996;2022-07-06T07:18:26;17.84;81.10
65573;SHT30;52214;50.940;13.996;2022-07-06T07:20:52;18.05;82.29
65573;SHT30;52214;50.940;13.996;2022-07-06T07:23:18;17.94;80.37
65573;SHT30;52214;50.940;13.996;2022-07-06T07:25:43;18.07;79.86
65573;SHT30;52214;50.940;13.996;2022-07-06T07:28:09;18.76;78.51
65573;SHT30;52214;50.940;13.996;2022-07-06T07:30:34;19.12;77.13
65573;SHT30;52214;50.940;13.996;2022-07-06T07:33:00;19.27;77.33
65573;SHT30;52214;50.940;13.996;2022-07-06T07:35:27;18.77;83.32
65573;SHT30;52214;50.940;13.996;2022-07-06T07:37:52;18.56;79.26
65573;SHT30;52214;50.940;13.996;2022-07-06T07:40:18;18.39;80.84
65573;SHT30;52214;50.940;13.996;2022-07-06T07:42:43;18.05;78.03
65573;SHT30;52214;50.940;13.996;2022-07-06T07:45:11;18.35;81.26
65573;SHT30;52214;50.940;13.996;2022-07-06T07:47:36;18.11;79.17
65573;SHT30;52214;50.940;13.996;2022-07-06T07:50:02;18.28;78.97
65573;SHT30;52214;50.940;13.996;2022-07-06T07:52:28;18.32;77.24
65573;SHT30;52214;50.940;13.996;2022-07-06T07:54:53;18.79;79.26
65573;SHT30;52214;50.940;13.996;2022-07-06T07:57:19;19.36;73.90
65573;SHT30;52214;50.940;13.996;2022-07-06T07:59:44;19.41;73.02
65573;SHT30;52214;50.940;13.996;2022-07-06T08:02:10;19.34;71.90
65573;SHT30;52214;50.940;13.996;2022-07-06T08:04:35;19.87;74.00
65573;SHT30;52214;50.940;13.996;2022-07-06T08:07:01;20.13;69.73
65573;SHT30;52214;50.940;13.996;2022-07-06T08:09:26;20.39;69.84
65573;SHT30;52214;50.940;13.996;2022-07-06T08:11:52;20.55;69.22
65573;SHT30;52214;50.940;13.996;2022-07-06T08:14:17;20.24;69.07
65573;SHT30;52214;50.940;13.996;2022-07-06T08:16:43;20.38;71.43
65573;SHT30;52214;50.940;13.996;2022-07-06T08:19:08;20.09;70.37
65573;SHT30;52214;50.940;13.996;2022-07-06T08:21:35;20.28;69.18
65573;SHT30;52214;50.940;13.996;2022-07-06T08:24:00;20.25;67.14
65573;SHT30;52214;50.940;13.996;2022-07-06T08:26:27;19.67;70.77
65573;SHT30;52214;50.940;13.996;2022-07-06T08:28:53;19.73;69.89
65573;SHT30;52214;50.940;13.996;2022-07-06T08:31:19;20.14;67.09
65573;SHT30;52214;50.940;13.996;2022-07-06T08:33:45;21.17;65.74
65573;SHT30;52214;50.940;13.996;2022-07-06T08:36:10;20.83;67.97
65573;SHT30;52214;50.940;13.996;2022-07-06T08:38:36;20.17;67.11
65573;SHT30;52214;50.940;13.996;2022-07-06T08:41:02;20.03;66.66
65573;SHT30;52214;50.940;13.996;2022-07-06T08:43:28;19.48;68.84
65573;SHT30;52214;50.940;13.996;2022-07-06T08:45:54;19.52;70.32
65573;SHT30;52214;50.940;13.996;2022-07-06T08:48:22;19.34;70.40
65573;SHT30;52214;50.940;13.996;2022-07-06T08:50:49;19.61;68.57
65573;SHT30;52214;50.940;13.996;2022-07-06T08:53:17;19.82;67.00
65573;SHT30;52214;50.940;13.996;2022-07-06T08:55:43;20.89;64.22
65573;SHT30;52214;50.940;13.996;2022-07-06T08:58:09;20.94;61.34
65573;SHT30;52214;50.940;13.996;2022-07-06T09:00:35;21.41;60.29
65573;SHT30;52214;50.940;13.996;2022-07-06T09:03:01;21.30;57.91
65573;SHT30;52214;50.940;13.996;2022-07-06T09:05:28;21.42;57.89
65573;SHT30;52214;50.940;13.996;2022-07-06T09:07:55;20.99;62.19
65573;SHT30;52214;50.940;13.996;2022-07-06T09:10:21;20.89;58.28
65573;SHT30;52214;50.940;13.996;2022-07-06T09:12:47;21.17;60.14
65573;SHT30;52214;50.940;13.996;2022-07-06T09:15:13;21.92;58.55
65573;SHT30;52214;50.940;13.996;2022-07-06T09:17:40;22.58;55.84
65573;SHT30;52214;50.940;13.996;2022-07-06T09:20:07;22.96;56.21
65573;SHT30;52214;50.940;13.996;2022-07-06T09:22:34;22.31;53.88
65573;SHT30;52214;50.940;13.996;2022-07-06T09:25:26;22.43;53.30
65573;SHT30;52214;50.940;13.996;2022-07-06T09:27:53;22.38;52.18
65573;SHT30;52214;50.940;13.996;2022-07-06T09:30:22;22.82;52.13
65573;SHT30;52214;50.940;13.996;2022-07-06T09:32:52;22.56;51.92
65573;SHT30;52214;50.940;13.996;2022-07-06T09:38:00;23.51;51.66
65573;SHT30;52214;50.940;13.996;2022-07-06T09:40:27;23.10;53.19
65573;SHT30;52214;50.940;13.996;2022-07-06T09:43:14;22.44;51.50
65573;SHT30;52214;50.940;13.996;2022-07-06T09:45:42;22.34;54.35
65573;SHT30;52214;50.940;13.996;2022-07-06T09:48:13;22.22;54.28
65573;SHT30;52214;50.940;13.996;2022-07-06T09:50:45;21.62;53.63
65573;SHT30;52214;50.940;13.996;2022-07-06T09:53:12;21.88;52.03
65573;SHT30;52214;50.940;13.996;2022-07-06T09:55:38;21.99;54.47
65573;SHT30;52214;50.940;13.996;2022-07-06T09:58:04;21.62;57.14
65573;SHT30;52214;50.940;13.996;2022-07-06T10:00:29;21.10;50.22
65573;SHT30;52214;50.940;13.996;2022-07-06T10:02:55;21.38;52.09
65573;SHT30;52214;50.940;13.996;2022-07-06T10:05:22;21.61;49.80
65573;SHT30;52214;50.940;13.996;2022-07-06T10:07:56;22.51;52.16
65573;SHT30;52214;50.940;13.996;2022-07-06T10:10:25;23.34;49.86
65573;SHT30;52214;50.940;13.996;2022-07-06T10:12:51;23.18;52.35
65573;SHT30;52214;50.940;13.996;2022-07-06T10:15:19;22.43;51.37
65573;SHT30;52214;50.940;13.996;2022-07-06T10:17:46;21.99;52.61
65573;SHT30;52214;50.940;13.996;2022-07-06T10:20:13;22.75;50.80
65573;SHT30;52214;50.940;13.996;2022-07-06T10:22:39;23.10;48.08
65573;SHT30;52214;50.940;13.996;2022-07-06T10:25:05;23.03;45.49
65573;SHT30;52214;50.940;13.996;2022-07-06T10:27:32;24.27;46.24
65573;SHT30;52214;50.940;13.996;2022-07-06T10:29:58;23.83;49.38
65573;SHT30;52214;50.940;13.996;2022-07-06T10:32:24;23.45;53.46
65573;SHT30;52214;50.940;13.996;2022-07-06T10:34:51;23.72;47.70
65573;SHT30;52214;50.940;13.996;2022-07-06T10:37:26;23.51;47.61
65573;SHT30;52214;50.940;13.996;2022-07-06T10:39:52;22.89;48.09
65573;SHT30;52214;50.940;13.996;2022-07-06T10:42:47;24.64;45.82
65573;SHT30;52214;50.940;13.996;2022-07-06T10:45:49;24.62;46.63
65573;SHT30;52214;50.940;13.996;2022-07-06T10:50:39;23.30;48.36
65573;SHT30;52214;50.940;13.996;2022-07-06T10:53:12;22.77;46.22
65573;SHT30;52214;50.940;13.996;2022-07-06T10:55:40;23.93;46.16
65573;SHT30;52214;50.940;13.996;2022-07-06T10:58:06;24.23;47.00
65573;SHT30;52214;50.940;13.996;2022-07-06T11:00:52;23.93;46.16
65573;SHT30;52214;50.940;13.996;2022-07-06T11:03:38;23.59;47.72
65573;SHT30;52214;50.940;13.996;2022-07-06T11:06:19;23.58;45.73
65573;SHT30;52214;50.940;13.996;2022-07-06T11:16:31;22.25;52.59
65573;SHT30;52214;50.940;13.996;2022-07-06T11:19:09;21.99;54.63
65573;SHT30;52214;50.940;13.996;2022-07-06T11:21:48;22.41;51.72
65573;SHT30;52214;50.940;13.996;2022-07-06T11:24:26;22.44;49.18
65573;SHT30;52214;50.940;13.996;2022-07-06T11:26:53;22.24;51.63
65573;SHT30;52214;50.940;13.996;2022-07-06T11:29:20;23.24;48.40
65573;SHT30;52214;50.940;13.996;2022-07-06T11:31:51;25.40;46.84
65573;SHT30;52214;50.940;13.996;2022-07-06T11:34:20;25.03;46.79
65573;SHT30;52214;50.940;13.996;2022-07-06T11:36:46;24.45;45.54
65573;SHT30;52214;50.940;13.996;2022-07-06T11:39:14;24.95;47.94
65573;SHT30;52214;50.940;13.996;2022-07-06T11:41:40;24.18;46.97
65573;SHT30;52214;50.940;13.996;2022-07-06T11:44:05;23.72;47.05
65573;SHT30;52214;50.940;13.996;2022-07-06T11:46:35;23.04;51.11
65573;SHT30;52214;50.940;13.996;2022-07-06T11:49:06;22.16;51.58
65573;SHT30;52214;50.940;13.996;2022-07-06T11:51:37;21.52;50.49
65573;SHT30;52214;50.940;13.996;2022-07-06T11:54:11;21.80;50.18
65573;SHT30;52214;50.940;13.996;2022-07-06T11:56:37;22.11;51.17
65573;SHT30;52214;50.940;13.996;2022-07-06T11:59:03;22.45;52.73
65573;SHT30;52214;50.940;13.996;2022-07-06T12:01:30;23.30;49.69
65573;SHT30;52214;50.940;13.996;2022-07-06T12:04:00;25.61;45.64
65573;SHT30;52214;50.940;13.996;2022-07-06T12:06:26;26.36;43.49
65573;SHT30;52214;50.940;13.996;2022-07-06T12:08:55;26.62;41.39
65573;SHT30;52214;50.940;13.996;2022-07-06T12:11:21;27.13;39.94
65573;SHT30;52214;50.940;13.996;2022-07-06T12:13:51;28.39;40.94
65573;SHT30;52214;50.940;13.996;2022-07-06T12:16:17;29.04;37.46
65573;SHT30;52214;50.940;13.996;2022-07-06T12:18:44;29.78;35.69
65573;SHT30;52214;50.940;13.996;2022-07-06T12:21:14;27.39;39.28
65573;SHT30;52214;50.940;13.996;2022-07-06T12:23:46;26.81;38.16
65573;SHT30;52214;50.940;13.996;2022-07-06T12:26:14;28.91;39.47
65573;SHT30;52214;50.940;13.996;2022-07-06T12:28:41;28.64;38.06
65573;SHT30;52214;50.940;13.996;2022-07-06T12:31:07;29.06;37.23
65573;SHT30;52214;50.940;13.996;2022-07-06T12:33:33;29.47;36.75
65573;SHT30;52214;50.940;13.996;2022-07-06T12:36:14;27.71;38.28
65573;SHT30;52214;50.940;13.996;2022-07-06T12:38:48;28.06;38.57
65573;SHT30;52214;50.940;13.996;2022-07-06T12:41:33;29.54;36.06
65573;SHT30;52214;50.940;13.996;2022-07-06T12:44:07;29.54;36.72
65573;SHT30;52214;50.940;13.996;2022-07-06T12:46:36;28.98;35.84
65573;SHT30;52214;50.940;13.996;2022-07-06T12:49:21;26.71;40.11
65573;SHT30;52214;50.940;13.996;2022-07-06T12:57:22;25.51;43.45
65573;SHT30;52214;50.940;13.996;2022-07-06T13:04:58;25.75;40.77
65573;SHT30;52214;50.940;13.996;2022-07-06T13:07:26;25.57;41.39
65573;SHT30;52214;50.940;13.996;2022-07-06T13:09:52;27.55;39.66
65573;SHT30;52214;50.940;13.996;2022-07-06T13:12:18;28.22;37.62
65573;SHT30;52214;50.940;13.996;2022-07-06T13:14:44;29.19;35.78
65573;SHT30;52214;50.940;13.996;2022-07-06T13:17:09;30.23;35.02
65573;SHT30;52214;50.940;13.996;2022-07-06T13:19:35;29.08;36.69
65573;SHT30;52214;50.940;13.996;2022-07-06T13:22:00;29.77;33.54
65573;SHT30;52214;50.940;13.996;2022-07-06T13:24:26;30.09;33.04
65573;SHT30;52214;50.940;13.996;2022-07-06T13:26:53;29.54;33.67
65573;SHT30;52214;50.940;13.996;2022-07-06T13:29:19;27.50;35.56
65573;SHT30;52214;50.940;13.996;2022-07-06T13:31:44;27.53;38.50
65573;SHT30;52214;50.940;13.996;2022-07-06T13:34:10;28.40;34.58
65573;SHT30;52214;50.940;13.996;2022-07-06T13:36:35;29.73;35.41
65573;SHT30;52214;50.940;13.996;2022-07-06T13:39:02;30.22;33.74
65573;SHT30;52214;50.940;13.996;2022-07-06T13:41:28;31.29;33.04
65573;SHT30;52214;50.940;13.996;2022-07-06T13:43:53;31.33;31.96
65573;SHT30;52214;50.940;13.996;2022-07-06T13:46:19;29.82;31.64
65573;SHT30;52214;50.940;13.996;2022-07-06T13:48:46;29.11;34.02
65573;SHT30;52214;50.940;13.996;2022-07-06T13:51:12;28.23;35.65
65573;SHT30;52214;50.940;13.996;2022-07-06T13:53:38;28.64;34.89
65573;SHT30;52214;50.940;13.996;2022-07-06T13:56:04;27.61;35.51
65573;SHT30;52214;50.940;13.996;2022-07-06T13:58:30;28.96;33.60
65573;SHT30;52214;50.940;13.996;2022-07-06T14:00:56;28.99;35.94
65573;SHT30;52214;50.940;13.996;2022-07-06T14:03:21;30.64;32.89
65573;SHT30;52214;50.940;13.996;2022-07-06T14:05:53;30.96;32.04
65573;SHT30;52214;50.940;13.996;2022-07-06T14:08:20;32.39;29.22
65573;SHT30;52214;50.940;13.996;2022-07-06T14:10:46;32.02;29.08
65573;SHT30;52214;50.940;13.996;2022-07-06T14:13:11;31.70;30.07
65573;SHT30;52214;50.940;13.996;2022-07-06T14:15:36;32.33;28.00
65573;SHT30;52214;50.940;13.996;2022-07-06T14:18:02;30.32;32.71
65573;SHT30;52214;50.940;13.996;2022-07-06T14:20:28;32.07;28.50
65573;SHT30;52214;50.940;13.996;2022-07-06T14:22:53;30.06;31.29
65573;SHT30;52214;50.940;13.996;2022-07-06T14:25:18;31.16;32.64
65573;SHT30;52214;50.940;13.996;2022-07-06T14:27:45;29.49;29.52
65573;SHT30;52214;50.940;13.996;2022-07-06T14:30:11;32.97;29.95
65573;SHT30;52214;50.940;13.996;2022-07-06T14:32:36;31.11;29.44
65573;SHT30;52214;50.940;13.996;2022-07-06T14:35:02;31.31;30.22
65573;SHT30;52214;50.940;13.996;2022-07-06T14:37:27;29.08;34.38
65573;SHT30;52214;50.940;13.996;2022-07-06T14:39:53;27.27;36.31
65573;SHT30;52214;50.940;13.996;2022-07-06T14:42:18;26.07;38.13
65573;SHT30;52214;50.940;13.996;2022-07-06T14:44:44;27.58;35.87
65573;SHT30;52214;50.940;13.996;2022-07-06T14:47:09;28.46;34.29
65573;SHT30;52214;50.940;13.996;2022-07-06T14:49:35;29.30;33.33
65573;SHT30;52214;50.940;13.996;2022-07-06T14:52:00;30.90;32.94
65573;SHT30;52214;50.940;13.996;2022-07-06T14:54:26;31.59;30.75
65573;SHT30;52214;50.940;13.996;2022-07-06T14:56:51;30.88;32.21
65573;SHT30;52214;50.940;13.996;2022-07-06T14:59:17;29.71;32.62
65573;SHT30;52214;50.940;13.996;2022-07-06T15:01:43;28.64;34.94
65573;SHT30;52214;50.940;13.996;2022-07-06T15:04:09;28.70;34.31
65573;SHT30;52214;50.940;13.996;2022-07-06T15:06:36;30.61;31.38
65573;SHT30;52214;50.940;13.996;2022-07-06T15:09:02;31.28;30.29
65573;SHT30;52214;50.940;13.996;2022-07-06T15:11:33;32.28;29.62
65573;SHT30;52214;50.940;13.996;2022-07-06T15:13:58;31.85;28.46
65573;SHT30;52214;50.940;13.996;2022-07-06T15:16:24;31.35;29.16
65573;SHT30;52214;50.940;13.996;2022-07-06T15:18:51;29.85;30.48
65573;SHT30;52214;50.940;13.996;2022-07-06T15:21:17;28.05;33.15
65573;SHT30;52214;50.940;13.996;2022-07-06T15:23:42;28.24;32.06
65573;SHT30;52214;50.940;13.996;2022-07-06T15:26:08;29.81;33.29
65573;SHT30;52214;50.940;13.996;2022-07-06T15:28:33;29.40;32.99
65573;SHT30;52214;50.940;13.996;2022-07-06T15:30:59;28.40;34.31
65573;SHT30;52214;50.940;13.996;2022-07-06T15:33:25;29.26;32.54
65573;SHT30;52214;50.940;13.996;2022-07-06T15:35:50;26.92;34.26
65573;SHT30;52214;50.940;13.996;2022-07-06T15:38:16;26.89;34.99